Fatma Sari — TCA3887 — position and weather

sailwx.info

Track history (hours):
 
Tides and Currents Weather Stations Pressure Air Temp Water Temp Dewpoint Dewpoint Depression Visibility Wind Speed Wind Dir Waves Ship Positions

Fatma Sari

Last reported at 2018-Jul-23 10:18 UTC. Time now 2018-Jul-23 13:49 UTC.
Position N 41°16' E 031°25'.

Length 185 m; draft 11.8 m.

Type: Cargo ship. MMSI: 271044362.

Date/timePositionNaut miles runAvg speedWind from/ knotsBaromVisibWave heightAir tempDewpointWater temp
2018-Jul-23 10:18N 41°16' E 031°25'0 0.0
2018-Jul-23 10:00N 41°16' E 031°25'  
2018-Jul-17 13:32N 40°02' E 026°15'010.7
2018-Jul-17 13:30N 40°02' E 026°15'510.3
2018-Jul-17 13:00N 40°01' E 026°08'610.3
2018-Jul-17 12:24N 39°59' E 026°01'4 9.9
2018-Jul-17 12:00N 39°56' E 025°57'610.2
2018-Jul-17 11:25N 39°51' E 025°52'810.5
2018-Jul-17 10:40N 39°44' E 025°50'12611.0
2018-Jul-16 23:16N 37°38' E 025°53'311.7
2018-Jul-16 23:00N 37°35' E 025°54'25610.1
2018-Jul-15 21:42N 36°03' E 030°52'410.7
2018-Jul-15 21:20N 36°03' E 030°57'  
Track history (hours):
 
Tides and Currents Weather Stations Pressure Air Temp Water Temp Dewpoint Dewpoint Depression Visibility Wind Speed Wind Dir Waves Ship Positions

Fatma Sari

Last reported at 2018-Jul-23 10:18 UTC. Time now 2018-Jul-23 13:49 UTC.
Position N 41°16' E 031°25'.

Length 185 m; draft 11.8 m.

Type: Cargo ship. MMSI: 271044362.

Date/timePositionNaut miles runAvg speedWind from/ knotsBaromVisibWave heightAir tempDewpointWater temp
2018-Jul-23 10:18N 41°16' E 031°25'0 0.0
2018-Jul-23 10:00N 41°16' E 031°25'  
2018-Jul-17 13:32N 40°02' E 026°15'010.7
2018-Jul-17 13:30N 40°02' E 026°15'510.3
2018-Jul-17 13:00N 40°01' E 026°08'610.3
2018-Jul-17 12:24N 39°59' E 026°01'4 9.9
2018-Jul-17 12:00N 39°56' E 025°57'610.2
2018-Jul-17 11:25N 39°51' E 025°52'810.5
2018-Jul-17 10:40N 39°44' E 025°50'12611.0
2018-Jul-16 23:16N 37°38' E 025°53'311.7
2018-Jul-16 23:00N 37°35' E 025°54'25610.1
2018-Jul-15 21:42N 36°03' E 030°52'410.7
2018-Jul-15 21:20N 36°03' E 030°57'  

Dump ship's entire track history